Time,TemperatureF,DewpointF,PressureIn,WindDirection,WindDirectionDegrees,WindSpeedMPH,WindSpeedGustMPH,Humidity,HourlyPrecipIn,Conditions,Clouds,dailyrainin,SoftwareType,DateUTC
2013-01-16 00:00:00,66.2,63.5,30.08,SE,143,0.0,0.0,91,0.00,,,0.00,Wunderground v.1.15,2013-01-16 05:00:00,
2013-01-16 00:05:00,66.1,63.4,30.08,SSE,150,0.0,5.0,91,0.00,,,0.00,Wunderground v.1.15,2013-01-16 05:05:00,
2013-01-16 00:10:00,66.0,63.3,30.08,WSW,242,0.0,5.0,91,0.00,,,0.00,Wunderground v.1.15,2013-01-16 05:10:00,
2013-01-16 00:15:00,65.9,63.2,30.08,SSW,195,0.0,5.0,91,0.00,,,0.00,Wunderground v.1.15,2013-01-16 05:15:00,
2013-01-16 00:20:00,65.6,62.9,30.08,WSW,257,0.0,5.0,91,0.00,,,0.00,Wunderground v.1.15,2013-01-16 05:20:00,
2013-01-16 00:25:00,65.4,63.0,30.08,WSW,249,0.0,5.0,92,0.00,,,0.00,Wunderground v.1.15,2013-01-16 05:25:00,
2013-01-16 00:30:00,65.5,63.1,30.08,SW,225,0.0,1.0,92,0.00,,,0.00,Wunderground v.1.15,2013-01-16 05:30:00,
2013-01-16 00:35:00,65.5,63.1,30.08,SW,225,0.0,1.0,92,0.00,,,0.00,Wunderground v.1.15,2013-01-16 05:35:00,
2013-01-16 00:44:00,65.5,63.4,30.08,SSW,212,0.0,2.0,93,0.00,,,0.00,Wunderground v.1.15,2013-01-16 05:44:00,
2013-01-16 00:49:00,65.6,63.5,30.08,SW,217,0.0,0.0,93,0.00,,,0.00,Wunderground v.1.15,2013-01-16 05:49:00,
2013-01-16 00:54:00,65.6,63.2,30.08,SW,215,0.0,1.0,92,0.00,,,0.00,Wunderground v.1.15,2013-01-16 05:54:00,
2013-01-16 00:59:00,65.6,63.2,30.08,SW,219,0.0,0.0,92,0.00,,,0.00,Wunderground v.1.15,2013-01-16 05:59:00,
2013-01-16 01:04:00,65.6,63.2,30.08,WSW,255,0.0,4.0,92,0.00,,,0.00,Wunderground v.1.15,2013-01-16 06:04:00,
2013-01-16 01:10:00,65.6,63.2,30.08,WSW,246,1.0,1.0,92,0.00,,,0.00,Wunderground v.1.15,2013-01-16 06:10:00,
2013-01-16 01:15:00,65.5,63.1,30.08,WSW,238,0.0,4.0,92,0.00,,,0.00,Wunderground v.1.15,2013-01-16 06:15:00,
2013-01-16 01:20:00,65.2,62.5,30.08,WSW,238,0.0,4.0,91,0.00,,,0.00,Wunderground v.1.15,2013-01-16 06:20:00,
2013-01-16 01:25:00,64.9,62.2,30.08,WSW,238,0.0,4.0,91,0.00,,,0.00,Wunderground v.1.15,2013-01-16 06:25:00,
2013-01-16 01:30:00,64.4,61.7,30.08,WSW,238,0.0,0.0,91,0.00,,,0.00,Wunderground v.1.15,2013-01-16 06:30:00,
2013-01-16 01:35:00,63.7,61.0,30.08,WSW,238,0.0,0.0,91,0.00,,,0.00,Wunderground v.1.15,2013-01-16 06:35:00,
2013-01-16 01:45:00,62.5,59.8,30.08,WSW,238,0.0,0.0,91,0.00,,,0.00,Wunderground v.1.15,2013-01-16 06:45:00,
2013-01-16 01:50:00,61.9,59.2,30.08,WSW,238,0.0,0.0,91,0.00,,,0.00,Wunderground v.1.15,2013-01-16 06:50:00,
2013-01-16 01:55:00,61.2,58.6,30.08,WSW,238,0.0,0.0,91,0.00,,,0.00,Wunderground v.1.15,2013-01-16 06:55:00,
2013-01-16 02:00:00,60.5,57.9,30.08,WSW,238,0.0,0.0,91,0.00,,,0.00,Wunderground v.1.15,2013-01-16 07:00:00,
2013-01-16 02:05:00,59.9,57.3,30.08,WSW,238,0.0,3.0,91,0.00,,,0.00,Wunderground v.1.15,2013-01-16 07:05:00,
2013-01-16 02:10:00,59.7,57.4,30.08,WSW,238,0.0,3.0,92,0.00,,,0.00,Wunderground v.1.15,2013-01-16 07:10:00,
2013-01-16 02:20:00,60.7,59.3,30.08,WSW,238,0.0,3.0,95,0.00,,,0.00,Wunderground v.1.15,2013-01-16 07:20:00,
2013-01-16 02:25:00,61.4,60.0,30.08,WSW,238,0.0,3.0,95,0.00,,,0.00,Wunderground v.1.15,2013-01-16 07:25:00,
2013-01-16 02:30:00,61.7,60.3,30.08,WSW,238,0.0,0.0,95,0.00,,,0.00,Wunderground v.1.15,2013-01-16 07:30:00,
2013-01-16 02:35:00,61.9,60.5,30.08,WSW,238,0.0,0.0,95,0.00,,,0.00,Wunderground v.1.15,2013-01-16 07:35:00,
2013-01-16 02:40:00,62.2,60.8,30.08,WSW,238,0.0,0.0,95,0.00,,,0.00,Wunderground v.1.15,2013-01-16 07:40:00,
2013-01-16 02:50:00,62.5,61.0,30.08,WSW,238,0.0,0.0,95,0.00,,,0.00,Wunderground v.1.15,2013-01-16 07:50:00,
2013-01-16 02:55:00,62.6,61.1,30.08,WSW,238,0.0,0.0,95,0.00,,,0.00,Wunderground v.1.15,2013-01-16 07:55:00,
2013-01-16 03:00:00,62.7,61.2,30.08,WSW,238,0.0,0.0,95,0.00,,,0.00,Wunderground v.1.15,2013-01-16 08:00:00,
2013-01-16 03:05:00,62.9,61.4,30.07,WSW,238,0.0,0.0,95,0.00,,,0.00,Wunderground v.1.15,2013-01-16 08:05:00,
2013-01-16 03:10:00,63.1,61.9,30.07,WSW,238,0.0,0.0,96,0.00,,,0.00,Wunderground v.1.15,2013-01-16 08:10:00,
2013-01-16 03:15:00,63.2,62.0,30.07,WSW,238,0.0,0.0,96,0.00,,,0.00,Wunderground v.1.15,2013-01-16 08:15:00,
2013-01-16 03:25:00,63.3,61.8,30.07,East,98,0.0,0.0,95,0.00,,,0.00,Wunderground v.1.15,2013-01-16 08:25:00,
2013-01-16 03:30:00,63.0,61.5,30.07,East,97,0.0,0.0,95,0.00,,,0.00,Wunderground v.1.15,2013-01-16 08:30:00,
2013-01-16 03:35:00,62.6,61.1,30.07,East,98,0.0,0.0,95,0.00,,,0.00,Wunderground v.1.15,2013-01-16 08:35:00,
2013-01-16 03:40:00,62.6,61.4,30.07,ESE,104,0.0,0.0,96,0.00,,,0.00,Wunderground v.1.15,2013-01-16 08:40:00,
2013-01-16 03:45:00,62.5,61.0,30.07,SE,134,0.0,0.0,95,0.00,,,0.00,Wunderground v.1.15,2013-01-16 08:45:00,
2013-01-16 03:55:00,62.1,60.7,30.06,ESE,116,0.0,0.0,95,0.00,,,0.00,Wunderground v.1.15,2013-01-16 08:55:00,
2013-01-16 04:00:00,61.7,60.3,30.06,SE,139,0.0,0.0,95,0.00,,,0.00,Wunderground v.1.15,2013-01-16 09:00:00,
2013-01-16 04:05:00,61.8,60.6,30.06,SE,142,0.0,1.0,96,0.00,,,0.00,Wunderground v.1.15,2013-01-16 09:05:00,
2013-01-16 04:10:00,62.0,60.8,30.06,SE,136,0.0,0.0,96,0.00,,,0.00,Wunderground v.1.15,2013-01-16 09:10:00,
2013-01-16 04:15:00,62.2,61.0,30.06,SE,138,0.0,0.0,96,0.00,,,0.00,Wunderground v.1.15,2013-01-16 09:15:00,
2013-01-16 04:20:00,62.3,61.1,30.06,SSE,149,0.0,0.0,96,0.00,,,0.00,Wunderground v.1.15,2013-01-16 09:20:00,
2013-01-16 04:30:00,62.0,60.8,30.06,SE,146,0.0,0.0,96,0.00,,,0.00,Wunderground v.1.15,2013-01-16 09:30:00,
2013-01-16 04:35:00,62.0,60.8,30.06,SE,146,0.0,0.0,96,0.00,,,0.00,Wunderground v.1.15,2013-01-16 09:35:00,
2013-01-16 04:40:00,62.0,60.8,30.06,SSE,147,0.0,0.0,96,0.00,,,0.00,Wunderground v.1.15,2013-01-16 09:40:00,
2013-01-16 04:45:00,62.0,60.8,30.06,SE,146,0.0,0.0,96,0.00,,,0.00,Wunderground v.1.15,2013-01-16 09:45:00,
2013-01-16 04:50:00,61.7,60.5,30.06,SE,146,0.0,0.0,96,0.00,,,0.00,Wunderground v.1.15,2013-01-16 09:50:00,
2013-01-16 05:00:00,61.0,59.9,30.06,SE,146,0.0,0.0,96,0.00,,,0.00,Wunderground v.1.15,2013-01-16 10:00:00,
2013-01-16 05:05:00,60.6,59.5,30.06,SE,146,0.0,1.0,96,0.00,,,0.00,Wunderground v.1.15,2013-01-16 10:05:00,
2013-01-16 05:10:00,59.9,58.5,30.06,SE,146,0.0,1.0,95,0.00,,,0.00,Wunderground v.1.15,2013-01-16 10:10:00,
2013-01-16 05:15:00,59.3,57.9,30.06,SE,146,0.0,1.0,95,0.00,,,0.00,Wunderground v.1.15,2013-01-16 10:15:00,
2013-01-16 05:20:00,59.8,58.9,30.06,SE,146,0.0,1.0,97,0.00,,,0.00,Wunderground v.1.15,2013-01-16 10:20:00,
2013-01-16 05:25:00,59.9,59.0,30.06,SE,146,0.0,1.0,97,0.00,,,0.00,Wunderground v.1.15,2013-01-16 10:25:00,
2013-01-16 05:35:00,59.5,58.4,30.07,SE,146,0.0,0.0,96,0.00,,,0.00,Wunderground v.1.15,2013-01-16 10:35:00,
2013-01-16 05:40:00,58.6,57.2,30.07,SE,146,0.0,0.0,95,0.00,,,0.00,Wunderground v.1.15,2013-01-16 10:40:00,
2013-01-16 05:45:00,58.0,56.6,30.07,SSE,147,0.0,0.0,95,0.00,,,0.00,Wunderground v.1.15,2013-01-16 10:45:00,
2013-01-16 05:50:00,57.5,56.1,30.07,SE,146,0.0,0.0,95,0.00,,,0.00,Wunderground v.1.15,2013-01-16 10:50:00,
2013-01-16 05:55:00,56.8,55.4,30.07,SE,146,0.0,0.0,95,0.00,,,0.00,Wunderground v.1.15,2013-01-16 10:55:00,
2013-01-16 06:00:00,56.6,55.5,30.07,SE,146,0.0,0.0,96,0.00,,,0.00,Wunderground v.1.15,2013-01-16 11:00:00,
2013-01-16 06:05:00,56.5,55.4,30.07,SE,146,0.0,0.0,96,0.00,,,0.00,Wunderground v.1.15,2013-01-16 11:05:00,
2013-01-16 06:10:00,56.6,55.5,30.07,SE,146,0.0,0.0,96,0.00,,,0.00,Wunderground v.1.15,2013-01-16 11:10:00,
2013-01-16 06:15:00,57.1,56.3,30.07,SE,146,0.0,0.0,97,0.00,,,0.00,Wunderground v.1.15,2013-01-16 11:15:00,
2013-01-16 06:20:00,58.2,57.6,30.07,SE,146,0.0,0.0,98,0.00,,,0.00,Wunderground v.1.15,2013-01-16 11:20:00,
2013-01-16 06:25:00,58.6,58.0,30.07,SSE,147,0.0,0.0,98,0.00,,,0.00,Wunderground v.1.15,2013-01-16 11:25:00,
2013-01-16 06:30:00,58.6,57.8,30.07,SSE,147,0.0,0.0,97,0.00,,,0.00,Wunderground v.1.15,2013-01-16 11:30:00,
2013-01-16 06:40:00,59.7,59.1,30.07,SE,146,0.0,0.0,98,0.00,,,0.00,Wunderground v.1.15,2013-01-16 11:40:00,
2013-01-16 06:45:00,60.2,59.6,30.08,SE,146,0.0,0.0,98,0.00,,,0.00,Wunderground v.1.15,2013-01-16 11:45:00,
2013-01-16 06:50:00,60.4,59.8,30.08,SE,146,0.0,0.0,98,0.00,,,0.00,Wunderground v.1.15,2013-01-16 11:50:00,
2013-01-16 06:55:00,60.6,60.0,30.08,SE,146,0.0,0.0,98,0.00,,,0.00,Wunderground v.1.15,2013-01-16 11:55:00,
2013-01-16 07:00:00,60.7,59.8,30.08,SE,146,0.0,0.0,97,0.00,,,0.00,Wunderground v.1.15,2013-01-16 12:00:00,
2013-01-16 07:05:00,60.5,59.6,30.08,SE,146,0.0,0.0,97,0.00,,,0.00,Wunderground v.1.15,2013-01-16 12:05:00,
2013-01-16 07:10:00,60.3,59.4,30.08,SSE,147,0.0,0.0,97,0.00,,,0.00,Wunderground v.1.15,2013-01-16 12:10:00,
2013-01-16 07:15:00,60.3,59.4,30.08,SE,146,0.0,0.0,97,0.00,,,0.00,Wunderground v.1.15,2013-01-16 12:15:00,
2013-01-16 07:20:00,60.6,59.7,30.08,SSE,147,0.0,0.0,97,0.00,,,0.00,Wunderground v.1.15,2013-01-16 12:20:00,
2013-01-16 07:29:00,60.4,59.5,30.09,SSE,147,0.0,0.0,97,0.00,,,0.00,Wunderground v.1.15,2013-01-16 12:29:00,
2013-01-16 07:34:00,60.1,59.2,30.09,SE,146,0.0,0.0,97,0.00,,,0.00,Wunderground v.1.15,2013-01-16 12:34:00,
2013-01-16 07:40:00,60.4,59.8,30.09,SE,146,0.0,0.0,98,0.00,,,0.00,Wunderground v.1.15,2013-01-16 12:40:00,
2013-01-16 07:45:00,60.4,59.5,30.09,SE,146,0.0,0.0,97,0.00,,,0.00,Wunderground v.1.15,2013-01-16 12:45:00,
2013-01-16 07:50:00,60.5,59.6,30.10,SE,146,0.0,0.0,97,0.00,,,0.00,Wunderground v.1.15,2013-01-16 12:50:00,
2013-01-16 07:55:00,60.8,60.2,30.09,SE,146,0.0,0.0,98,0.00,,,0.00,Wunderground v.1.15,2013-01-16 12:55:00,
2013-01-16 08:00:00,61.0,60.1,30.10,SE,146,0.0,0.0,97,0.00,,,0.00,Wunderground v.1.15,2013-01-16 13:00:00,
2013-01-16 08:05:00,61.2,60.3,30.10,SE,146,0.0,1.0,97,0.00,,,0.00,Wunderground v.1.15,2013-01-16 13:05:00,
2013-01-16 08:15:00,62.1,61.5,30.10,SW,218,0.0,1.0,98,0.00,,,0.00,Wunderground v.1.15,2013-01-16 13:15:00,
2013-01-16 08:20:00,62.6,62.0,30.10,WSW,256,0.0,1.0,98,0.00,,,0.00,Wunderground v.1.15,2013-01-16 13:20:00,
2013-01-16 08:25:00,63.0,62.4,30.10,SW,236,0.0,1.0,98,0.00,,,0.00,Wunderground v.1.15,2013-01-16 13:25:00,
2013-01-16 08:30:00,63.3,62.7,30.10,SSE,158,0.0,0.0,98,0.00,,,0.00,Wunderground v.1.15,2013-01-16 13:30:00,
2013-01-16 08:35:00,63.8,63.2,30.10,SW,215,0.0,0.0,98,0.00,,,0.00,Wunderground v.1.15,2013-01-16 13:35:00,
2013-01-16 08:45:00,64.5,63.6,30.11,SE,143,0.0,0.0,97,0.00,,,0.00,Wunderground v.1.15,2013-01-16 13:45:00,
2013-01-16 08:50:00,64.7,63.8,30.11,WSW,250,0.0,0.0,97,0.00,,,0.00,Wunderground v.1.15,2013-01-16 13:50:00,
2013-01-16 08:55:00,65.0,64.1,30.11,SW,218,0.0,1.0,97,0.00,,,0.00,Wunderground v.1.15,2013-01-16 13:55:00,
2013-01-16 09:00:00,65.2,64.3,30.11,SW,214,0.0,0.0,97,0.00,,,0.00,Wunderground v.1.15,2013-01-16 14:00:00,
2013-01-16 09:05:00,65.5,64.6,30.12,WSW,246,1.0,1.0,97,0.00,,,0.00,Wunderground v.1.15,2013-01-16 14:05:00,
2013-01-16 09:10:00,65.9,65.0,30.12,SW,236,0.0,0.0,97,0.00,,,0.00,Wunderground v.1.15,2013-01-16 14:10:00,
2013-01-16 09:20:00,66.6,65.4,30.12,SW,214,0.0,0.0,96,0.00,,,0.00,Wunderground v.1.15,2013-01-16 14:20:00,
2013-01-16 09:25:00,66.9,65.7,30.12,WSW,249,0.0,0.0,96,0.00,,,0.00,Wunderground v.1.15,2013-01-16 14:25:00,
2013-01-16 09:30:00,67.2,65.7,30.12,SW,225,0.0,0.0,95,0.00,,,0.00,Wunderground v.1.15,2013-01-16 14:30:00,
2013-01-16 09:35:00,67.4,65.6,30.12,WSW,254,1.0,2.0,94,0.00,,,0.00,Wunderground v.1.15,2013-01-16 14:35:00,
2013-01-16 09:40:00,67.7,65.9,30.13,WSW,253,1.0,2.0,94,0.00,,,0.00,Wunderground v.1.15,2013-01-16 14:40:00,
2013-01-16 09:45:00,68.1,66.3,30.13,WSW,250,1.0,2.0,94,0.00,,,0.00,Wunderground v.1.15,2013-01-16 14:45:00,
2013-01-16 09:50:00,68.4,66.0,30.13,SW,222,1.0,1.0,92,0.00,,,0.00,Wunderground v.1.15,2013-01-16 14:50:00,
2013-01-16 09:55:00,68.8,66.1,30.13,WSW,254,1.0,2.0,91,0.00,,,0.00,Wunderground v.1.15,2013-01-16 14:55:00,
2013-01-16 10:00:00,69.4,66.3,30.13,SW,236,1.0,1.0,90,0.00,,,0.00,Wunderground v.1.15,2013-01-16 15:00:00,
2013-01-16 10:05:00,69.9,66.2,30.13,WSW,250,1.0,2.0,88,0.00,,,0.00,Wunderground v.1.15,2013-01-16 15:05:00,
2013-01-16 10:10:00,70.4,66.3,30.13,WSW,250,1.0,1.0,87,0.00,,,0.00,Wunderground v.1.15,2013-01-16 15:10:00,
2013-01-16 10:15:00,70.9,66.2,30.13,WSW,242,1.0,2.0,85,0.00,,,0.00,Wunderground v.1.15,2013-01-16 15:15:00,
2013-01-16 10:25:00,71.7,65.6,30.13,SW,226,1.0,2.0,81,0.00,,,0.00,Wunderground v.1.15,2013-01-16 15:25:00,
2013-01-16 10:30:00,72.2,65.7,30.12,WSW,238,2.0,2.0,80,0.00,,,0.00,Wunderground v.1.15,2013-01-16 15:30:00,
2013-01-16 10:35:00,72.5,65.2,30.12,WSW,238,1.0,4.0,78,0.00,,,0.00,Wunderground v.1.15,2013-01-16 15:35:00,
2013-01-16 10:40:00,72.7,65.1,30.12,WSW,239,2.0,2.0,77,0.00,,,0.00,Wunderground v.1.15,2013-01-16 15:40:00,
2013-01-16 10:45:00,73.1,65.1,30.12,WSW,238,2.0,2.0,76,0.00,,,0.00,Wunderground v.1.15,2013-01-16 15:45:00,
2013-01-16 10:54:00,74.2,65.4,30.11,SSW,201,1.0,1.0,74,0.00,,,0.00,Wunderground v.1.15,2013-01-16 15:54:00,
2013-01-16 10:59:00,75.0,65.0,30.11,SW,225,1.0,1.0,71,0.00,,,0.00,Wunderground v.1.15,2013-01-16 15:59:00,
2013-01-16 11:04:00,75.5,64.6,30.11,WSW,246,1.0,3.0,69,0.00,,,0.00,Wunderground v.1.15,2013-01-16 16:04:00,
2013-01-16 11:09:00,76.0,64.7,30.10,SSW,205,1.0,1.0,68,0.00,,,0.00,Wunderground v.1.15,2013-01-16 16:09:00,
2013-01-16 11:14:00,76.9,64.2,30.10,WSW,245,1.0,2.0,65,0.00,,,0.00,Wunderground v.1.15,2013-01-16 16:14:00,
2013-01-16 11:20:00,77.6,65.3,30.10,WSW,245,2.0,2.0,66,0.00,,,0.00,Wunderground v.1.15,2013-01-16 16:20:00,
2013-01-16 11:25:00,78.4,64.3,30.09,SW,226,1.0,2.0,62,0.00,,,0.00,Wunderground v.1.15,2013-01-16 16:25:00,
2013-01-16 11:30:00,79.0,63.0,30.09,SSW,195,2.0,5.0,58,0.00,,,0.00,Wunderground v.1.15,2013-01-16 16:30:00,
2013-01-16 11:35:00,79.0,62.5,30.09,SW,236,3.0,5.0,57,0.00,,,0.00,Wunderground v.1.15,2013-01-16 16:35:00,
2013-01-16 11:40:00,78.6,62.1,30.09,SW,233,2.0,2.0,57,0.00,,,0.00,Wunderground v.1.15,2013-01-16 16:40:00,
2013-01-16 11:45:00,78.4,62.4,30.09,SW,233,1.0,2.0,58,0.00,,,0.00,Wunderground v.1.15,2013-01-16 16:45:00,
2013-01-16 11:50:00,78.1,62.1,30.09,SSW,208,1.0,1.0,58,0.00,,,0.00,Wunderground v.1.15,2013-01-16 16:50:00,
2013-01-16 12:00:00,77.4,61.9,30.08,South,191,2.0,2.0,59,0.00,,,0.00,Wunderground v.1.15,2013-01-16 17:00:00,
2013-01-16 12:05:00,77.4,61.9,30.08,SSW,205,2.0,6.0,59,0.00,,,0.00,Wunderground v.1.15,2013-01-16 17:05:00,
2013-01-16 12:10:00,77.8,62.3,30.08,WSW,242,2.0,2.0,59,0.00,,,0.00,Wunderground v.1.15,2013-01-16 17:10:00,
2013-01-16 12:15:00,78.2,62.2,30.07,SSW,203,2.0,6.0,58,0.00,,,0.00,Wunderground v.1.15,2013-01-16 17:15:00,
2013-01-16 12:20:00,78.0,61.5,30.07,WSW,238,2.0,6.0,57,0.00,,,0.00,Wunderground v.1.15,2013-01-16 17:20:00,
2013-01-16 12:30:00,77.9,61.9,30.07,SSE,152,0.0,2.0,58,0.00,,,0.00,Wunderground v.1.15,2013-01-16 17:30:00,
2013-01-16 12:35:00,78.6,62.6,30.06,SE,132,0.0,3.0,58,0.00,,,0.00,Wunderground v.1.15,2013-01-16 17:35:00,
2013-01-16 12:40:00,79.9,62.8,30.06,West,262,2.0,3.0,56,0.00,,,0.00,Wunderground v.1.15,2013-01-16 17:40:00,
2013-01-16 12:45:00,79.6,62.0,30.06,WSW,255,3.0,3.0,55,0.00,,,0.00,Wunderground v.1.15,2013-01-16 17:45:00,
2013-01-16 12:50:00,79.2,61.6,30.06,SSW,193,3.0,3.0,55,0.00,,,0.00,Wunderground v.1.15,2013-01-16 17:50:00,
2013-01-16 12:55:00,79.7,63.1,30.06,WSW,255,2.0,3.0,57,0.00,,,0.00,Wunderground v.1.15,2013-01-16 17:55:00,
2013-01-16 13:05:00,79.9,62.3,30.05,WSW,248,1.0,8.0,55,0.00,,,0.00,Wunderground v.1.15,2013-01-16 18:05:00,
2013-01-16 13:10:00,79.7,62.1,30.05,WSW,256,1.0,8.0,55,0.00,,,0.00,Wunderground v.1.15,2013-01-16 18:10:00,
2013-01-16 13:15:00,79.9,61.2,30.05,ESE,111,1.0,8.0,53,0.00,,,0.00,Wunderground v.1.15,2013-01-16 18:15:00,
2013-01-16 13:20:00,80.1,61.4,30.05,WSW,253,1.0,8.0,53,0.00,,,0.00,Wunderground v.1.15,2013-01-16 18:20:00,
2013-01-16 13:25:00,79.7,61.1,30.04,SW,228,2.0,8.0,53,0.00,,,0.00,Wunderground v.1.15,2013-01-16 18:25:00,
2013-01-16 13:35:00,79.4,61.8,30.04,WSW,248,1.0,1.0,55,0.00,,,0.00,Wunderground v.1.15,2013-01-16 18:35:00,
2013-01-16 13:40:00,78.9,60.8,30.04,WSW,245,1.0,1.0,54,0.00,,,0.00,Wunderground v.1.15,2013-01-16 18:40:00,
2013-01-16 13:45:00,78.9,61.4,30.04,SSW,198,1.0,1.0,55,0.00,,,0.00,Wunderground v.1.15,2013-01-16 18:45:00,
2013-01-16 13:50:00,78.9,61.4,30.04,WSW,257,0.0,1.0,55,0.00,,,0.00,Wunderground v.1.15,2013-01-16 18:50:00,
2013-01-16 13:55:00,79.0,61.5,30.04,SW,236,0.0,1.0,55,0.00,,,0.00,Wunderground v.1.15,2013-01-16 18:55:00,
2013-01-16 14:00:00,79.8,61.7,30.03,NNW,327,1.0,1.0,54,0.00,,,0.00,Wunderground v.1.15,2013-01-16 19:00:00,
2013-01-16 14:10:00,80.6,61.3,30.03,WSW,250,1.0,8.0,52,0.00,,,0.00,Wunderground v.1.15,2013-01-16 19:10:00,
2013-01-16 14:15:00,80.3,61.6,30.03,SSW,198,1.0,8.0,53,0.00,,,0.00,Wunderground v.1.15,2013-01-16 19:15:00,
2013-01-16 14:20:00,80.1,61.4,30.03,SSW,211,1.0,1.0,53,0.00,,,0.00,Wunderground v.1.15,2013-01-16 19:20:00,
2013-01-16 14:25:00,80.0,61.9,30.03,SSW,203,1.0,1.0,54,0.00,,,0.00,Wunderground v.1.15,2013-01-16 19:25:00,
2013-01-16 14:30:00,80.2,62.0,30.03,ENE,66,0.0,0.0,54,0.00,,,0.00,Wunderground v.1.15,2013-01-16 19:30:00,
2013-01-16 14:35:00,81.3,62.0,30.03,WSW,245,0.0,0.0,52,0.00,,,0.00,Wunderground v.1.15,2013-01-16 19:35:00,
2013-01-16 14:40:00,82.2,61.7,30.02,SW,232,0.0,0.0,50,0.00,,,0.00,Wunderground v.1.15,2013-01-16 19:40:00,
2013-01-16 14:45:00,83.0,60.7,30.03,SE,146,1.0,1.0,47,0.00,,,0.00,Wunderground v.1.15,2013-01-16 19:45:00,
2013-01-16 14:50:00,83.1,60.8,30.02,SE,146,1.0,1.0,47,0.00,,,0.00,Wunderground v.1.15,2013-01-16 19:50:00,
2013-01-16 14:55:00,83.4,62.2,30.02,WSW,253,0.0,1.0,49,0.00,,,0.00,Wunderground v.1.15,2013-01-16 19:55:00,
2013-01-16 15:04:00,82.3,59.4,30.02,SE,134,1.0,2.0,46,0.00,,,0.00,Wunderground v.1.15,2013-01-16 20:04:00,
2013-01-16 15:10:00,81.4,60.4,30.02,WSW,255,1.0,6.0,49,0.00,,,0.00,Wunderground v.1.15,2013-01-16 20:10:00,
2013-01-16 15:15:00,80.8,59.9,30.02,SE,132,1.0,6.0,49,0.00,,,0.00,Wunderground v.1.15,2013-01-16 20:15:00,
2013-01-16 15:20:00,80.8,60.4,30.02,SW,215,0.0,6.0,50,0.00,,,0.00,Wunderground v.1.15,2013-01-16 20:20:00,
2013-01-16 15:25:00,81.9,60.3,30.02,SSW,200,0.0,6.0,48,0.00,,,0.00,Wunderground v.1.15,2013-01-16 20:25:00,
2013-01-16 15:30:00,82.3,60.1,30.02,SW,232,1.0,1.0,47,0.00,,,0.00,Wunderground v.1.15,2013-01-16 20:30:00,
2013-01-16 15:35:00,82.8,59.9,30.02,SW,226,1.0,1.0,46,0.00,,,0.00,Wunderground v.1.15,2013-01-16 20:35:00,
2013-01-16 15:45:00,83.9,60.3,30.02,SSE,158,1.0,3.0,45,0.00,,,0.00,Wunderground v.1.15,2013-01-16 20:45:00,
2013-01-16 15:50:00,83.8,60.2,30.02,SW,218,2.0,4.0,45,0.00,,,0.00,Wunderground v.1.15,2013-01-16 20:50:00,
2013-01-16 15:55:00,83.6,60.6,30.02,SW,222,2.0,4.0,46,0.00,,,0.00,Wunderground v.1.15,2013-01-16 20:55:00,
2013-01-16 16:00:00,83.2,60.3,30.02,SSE,160,2.0,2.0,46,0.00,,,0.00,Wunderground v.1.15,2013-01-16 21:00:00,
2013-01-16 16:05:00,82.0,60.4,30.02,SSE,167,1.0,4.0,48,0.00,,,0.00,Wunderground v.1.15,2013-01-16 21:05:00,
2013-01-16 16:10:00,80.9,59.9,30.02,SE,146,1.0,4.0,49,0.00,,,0.00,Wunderground v.1.15,2013-01-16 21:10:00,
2013-01-16 16:15:00,79.9,60.2,30.02,SSE,150,0.0,4.0,51,0.00,,,0.00,Wunderground v.1.15,2013-01-16 21:15:00,
2013-01-16 16:20:00,79.2,60.6,30.02,SSE,149,1.0,4.0,53,0.00,,,0.00,Wunderground v.1.15,2013-01-16 21:20:00,
2013-01-16 16:25:00,79.4,59.7,30.02,SE,129,1.0,4.0,51,0.00,,,0.00,Wunderground v.1.15,2013-01-16 21:25:00,
2013-01-16 16:30:00,80.0,59.7,30.02,SE,146,1.0,1.0,50,0.00,,,0.00,Wunderground v.1.15,2013-01-16 21:30:00,
2013-01-16 16:35:00,80.3,60.0,30.02,SW,234,1.0,1.0,50,0.00,,,0.00,Wunderground v.1.15,2013-01-16 21:35:00,
2013-01-16 16:40:00,81.0,60.0,30.02,West,266,1.0,1.0,49,0.00,,,0.00,Wunderground v.1.15,2013-01-16 21:40:00,
2013-01-16 16:50:00,80.8,59.3,30.02,SE,127,1.0,1.0,48,0.00,,,0.00,Wunderground v.1.15,2013-01-16 21:50:00,
2013-01-16 16:55:00,80.6,59.1,30.02,SE,138,2.0,2.0,48,0.00,,,0.00,Wunderground v.1.15,2013-01-16 21:55:00,
2013-01-16 17:00:00,80.3,58.8,30.02,ESE,111,2.0,3.0,48,0.00,,,0.00,Wunderground v.1.15,2013-01-16 22:00:00,
2013-01-16 17:05:00,80.1,59.2,30.02,ESE,117,2.0,6.0,49,0.00,,,0.00,Wunderground v.1.15,2013-01-16 22:05:00,
2013-01-16 17:10:00,79.8,58.9,30.02,ESE,103,1.0,1.0,49,0.00,,,0.00,Wunderground v.1.15,2013-01-16 22:10:00,
2013-01-16 17:15:00,79.4,59.1,30.03,SE,134,1.0,6.0,50,0.00,,,0.00,Wunderground v.1.15,2013-01-16 22:15:00,
2013-01-16 17:20:00,78.9,59.2,30.03,SE,134,0.0,6.0,51,0.00,,,0.00,Wunderground v.1.15,2013-01-16 22:20:00,
2013-01-16 17:25:00,78.4,59.3,30.03,SE,134,0.0,6.0,52,0.00,,,0.00,Wunderground v.1.15,2013-01-16 22:25:00,
2013-01-16 17:30:00,77.8,60.3,30.03,SE,134,0.0,0.0,55,0.00,,,0.00,Wunderground v.1.15,2013-01-16 22:30:00,
2013-01-16 17:35:00,77.1,59.7,30.03,SE,134,0.0,0.0,55,0.00,,,0.00,Wunderground v.1.15,2013-01-16 22:35:00,
2013-01-16 17:40:00,76.1,60.2,30.03,SE,134,0.0,0.0,58,0.00,,,0.00,Wunderground v.1.15,2013-01-16 22:40:00,
2013-01-16 17:45:00,75.1,60.3,30.03,SE,134,0.0,0.0,60,0.00,,,0.00,Wunderground v.1.15,2013-01-16 22:45:00,
2013-01-16 17:55:00,72.8,59.0,30.03,SE,134,0.0,0.0,62,0.00,,,0.00,Wunderground v.1.15,2013-01-16 22:55:00,
2013-01-16 18:00:00,71.7,59.3,30.03,SE,134,0.0,0.0,65,0.00,,,0.00,Wunderground v.1.15,2013-01-16 23:00:00,
2013-01-16 18:05:00,70.5,59.0,30.03,SE,134,0.0,5.0,67,0.00,,,0.00,Wunderground v.1.15,2013-01-16 23:05:00,
2013-01-16 18:10:00,69.2,57.8,30.03,SE,134,0.0,5.0,67,0.00,,,0.00,Wunderground v.1.15,2013-01-16 23:10:00,
2013-01-16 18:15:00,67.8,57.7,30.03,SE,134,0.0,5.0,70,0.00,,,0.00,Wunderground v.1.15,2013-01-16 23:15:00,
2013-01-16 18:25:00,65.6,55.5,30.03,SE,134,0.0,5.0,70,0.00,,,0.00,Wunderground v.1.15,2013-01-16 23:25:00,
2013-01-16 18:30:00,65.1,57.0,30.03,SE,134,0.0,0.0,75,0.00,,,0.00,Wunderground v.1.15,2013-01-16 23:30:00,
2013-01-16 18:35:00,65.0,56.9,30.03,SE,134,0.0,0.0,75,0.00,,,0.00,Wunderground v.1.15,2013-01-16 23:35:00,
2013-01-16 18:40:00,64.4,56.3,30.03,SE,134,0.0,0.0,75,0.00,,,0.00,Wunderground v.1.15,2013-01-16 23:40:00,
2013-01-16 18:45:00,63.6,55.5,30.03,SE,134,0.0,0.0,75,0.00,,,0.00,Wunderground v.1.15,2013-01-16 23:45:00,
2013-01-16 18:50:00,62.8,55.5,30.03,SE,134,0.0,0.0,77,0.00,,,0.00,Wunderground v.1.15,2013-01-16 23:50:00,
2013-01-16 19:00:00,61.4,54.1,30.04,SE,134,0.0,0.0,77,0.00,,,0.00,Wunderground v.1.15,2013-01-17 00:00:00,
2013-01-16 19:05:00,61.1,55.6,30.04,SE,134,0.0,0.0,82,0.00,,,0.00,Wunderground v.1.15,2013-01-17 00:05:00,
2013-01-16 19:10:00,60.6,54.7,30.04,SE,134,0.0,0.0,81,0.00,,,0.00,Wunderground v.1.15,2013-01-17 00:10:00,
2013-01-16 19:15:00,60.2,54.3,30.04,SE,134,0.0,0.0,81,0.00,,,0.00,Wunderground v.1.15,2013-01-17 00:15:00,
2013-01-16 19:20:00,59.8,54.3,30.04,SE,134,0.0,0.0,82,0.00,,,0.00,Wunderground v.1.15,2013-01-17 00:20:00,
2013-01-16 19:30:00,59.1,54.3,30.04,SE,134,0.0,0.0,84,0.00,,,0.00,Wunderground v.1.15,2013-01-17 00:30:00,
2013-01-16 19:35:00,58.7,53.9,30.04,SE,134,0.0,0.0,84,0.00,,,0.00,Wunderground v.1.15,2013-01-17 00:35:00,
2013-01-16 19:40:00,58.4,53.9,30.04,SE,134,0.0,0.0,85,0.00,,,0.00,Wunderground v.1.15,2013-01-17 00:40:00,
2013-01-16 19:45:00,58.9,56.0,30.04,SE,134,0.0,0.0,90,0.00,,,0.00,Wunderground v.1.15,2013-01-17 00:45:00,
2013-01-16 19:50:00,59.6,56.7,30.05,SE,134,0.0,0.0,90,0.00,,,0.00,Wunderground v.1.15,2013-01-17 00:50:00,
2013-01-16 19:55:00,59.4,56.2,30.05,SE,134,0.0,0.0,89,0.00,,,0.00,Wunderground v.1.15,2013-01-17 00:55:00,
2013-01-16 20:05:00,58.6,55.4,30.05,SE,134,0.0,0.0,89,0.00,,,0.00,Wunderground v.1.15,2013-01-17 01:05:00,
2013-01-16 20:10:00,58.0,54.5,30.05,SE,134,0.0,0.0,88,0.00,,,0.00,Wunderground v.1.15,2013-01-17 01:10:00,
2013-01-16 20:15:00,57.6,54.4,30.05,SE,134,0.0,0.0,89,0.00,,,0.00,Wunderground v.1.15,2013-01-17 01:15:00,
2013-01-16 20:20:00,57.2,54.0,30.05,SE,134,0.0,0.0,89,0.00,,,0.00,Wunderground v.1.15,2013-01-17 01:20:00,
2013-01-16 20:25:00,57.0,53.8,30.05,SE,134,0.0,0.0,89,0.00,,,0.00,Wunderground v.1.15,2013-01-17 01:25:00,
2013-01-16 20:35:00,56.4,53.5,30.05,SE,134,0.0,0.0,90,0.00,,,0.00,Wunderground v.1.15,2013-01-17 01:35:00,
2013-01-16 20:40:00,56.3,53.4,30.05,SE,134,0.0,0.0,90,0.00,,,0.00,Wunderground v.1.15,2013-01-17 01:40:00,
2013-01-16 20:45:00,56.2,53.3,30.05,SE,134,0.0,0.0,90,0.00,,,0.00,Wunderground v.1.15,2013-01-17 01:45:00,
2013-01-16 20:50:00,56.0,53.4,30.05,SE,134,0.0,0.0,91,0.00,,,0.00,Wunderground v.1.15,2013-01-17 01:50:00,
2013-01-16 20:55:00,56.0,53.4,30.05,SE,134,0.0,0.0,91,0.00,,,0.00,Wunderground v.1.15,2013-01-17 01:55:00,
2013-01-16 21:00:00,55.8,53.2,30.05,SE,134,0.0,0.0,91,0.00,,,0.00,Wunderground v.1.15,2013-01-17 02:00:00,
2013-01-16 21:05:00,55.5,52.9,30.05,SE,134,0.0,0.0,91,0.00,,,0.00,Wunderground v.1.15,2013-01-17 02:05:00,
2013-01-16 21:10:00,56.1,54.4,30.05,SE,134,0.0,0.0,94,0.00,,,0.00,Wunderground v.1.15,2013-01-17 02:10:00,
2013-01-16 21:15:00,55.8,53.5,30.05,SE,134,0.0,0.0,92,0.00,,,0.00,Wunderground v.1.15,2013-01-17 02:15:00,
2013-01-16 21:24:00,55.5,53.5,30.05,SE,134,0.0,0.0,93,0.00,,,0.00,Wunderground v.1.15,2013-01-17 02:24:00,
2013-01-16 21:29:00,56.7,55.6,30.05,SE,134,0.0,0.0,96,0.00,,,0.00,Wunderground v.1.15,2013-01-17 02:29:00,
2013-01-16 21:35:00,57.7,56.6,30.05,SE,134,0.0,0.0,96,0.00,,,0.00,Wunderground v.1.15,2013-01-17 02:35:00,
2013-01-16 21:40:00,58.1,56.7,30.04,SE,134,0.0,0.0,95,0.00,,,0.00,Wunderground v.1.15,2013-01-17 02:40:00,
2013-01-16 21:45:00,58.6,57.5,30.05,SE,134,0.0,0.0,96,0.00,,,0.00,Wunderground v.1.15,2013-01-17 02:45:00,
2013-01-16 21:50:00,59.1,58.0,30.05,SE,134,0.0,0.0,96,0.00,,,0.00,Wunderground v.1.15,2013-01-17 02:50:00,
2013-01-16 21:55:00,59.0,57.6,30.05,SE,134,0.0,0.0,95,0.00,,,0.00,Wunderground v.1.15,2013-01-17 02:55:00,
2013-01-16 22:00:00,58.8,57.1,30.05,SE,134,0.0,0.0,94,0.00,,,0.00,Wunderground v.1.15,2013-01-17 03:00:00,
2013-01-16 22:10:00,58.6,56.9,30.05,SSW,194,0.0,0.0,94,0.00,,,0.00,Wunderground v.1.15,2013-01-17 03:10:00,
2013-01-16 22:15:00,58.8,57.4,30.05,SW,225,0.0,0.0,95,0.00,,,0.00,Wunderground v.1.15,2013-01-17 03:15:00,
2013-01-16 22:20:00,58.4,56.4,30.05,SW,225,0.0,0.0,93,0.00,,,0.00,Wunderground v.1.15,2013-01-17 03:20:00,
2013-01-16 22:25:00,58.4,56.7,30.05,SW,225,0.0,0.0,94,0.00,,,0.00,Wunderground v.1.15,2013-01-17 03:25:00,
2013-01-16 22:30:00,58.6,56.9,30.05,SW,224,0.0,0.0,94,0.00,,,0.00,Wunderground v.1.15,2013-01-17 03:30:00,
2013-01-16 22:35:00,58.6,56.9,30.05,SW,225,0.0,0.0,94,0.00,,,0.00,Wunderground v.1.15,2013-01-17 03:35:00,
2013-01-16 22:45:00,58.0,56.3,30.05,SW,224,0.0,0.0,94,0.00,,,0.00,Wunderground v.1.15,2013-01-17 03:45:00,
2013-01-16 22:50:00,57.9,56.2,30.05,SW,225,0.0,0.0,94,0.00,,,0.00,Wunderground v.1.15,2013-01-17 03:50:00,
2013-01-16 22:55:00,57.4,55.4,30.05,SW,224,0.0,0.0,93,0.00,,,0.00,Wunderground v.1.15,2013-01-17 03:55:00,
2013-01-16 23:00:00,56.7,54.7,30.05,ENE,57,0.0,0.0,93,0.00,,,0.00,Wunderground v.1.15,2013-01-17 04:00:00,
2013-01-16 23:05:00,57.1,55.7,30.05,ENE,57,0.0,0.0,95,0.00,,,0.00,Wunderground v.1.15,2013-01-17 04:05:00,
2013-01-16 23:15:00,56.6,54.6,30.05,NE,56,0.0,0.0,93,0.00,,,0.00,Wunderground v.1.15,2013-01-17 04:15:00,
2013-01-16 23:20:00,56.7,55.0,30.05,NE,56,0.0,0.0,94,0.00,,,0.00,Wunderground v.1.15,2013-01-17 04:20:00,
2013-01-16 23:25:00,57.4,56.3,30.05,NE,55,0.0,0.0,96,0.00,,,0.00,Wunderground v.1.15,2013-01-17 04:25:00,
2013-01-16 23:30:00,58.0,56.9,30.05,North,8,0.0,0.0,96,0.00,,,0.00,Wunderground v.1.15,2013-01-17 04:30:00,
2013-01-16 23:35:00,58.0,56.6,30.05,SW,231,0.0,0.0,95,0.00,,,0.00,Wunderground v.1.15,2013-01-17 04:35:00,
2013-01-16 23:40:00,57.9,56.5,30.05,SW,231,0.0,0.0,95,0.00,,,0.00,Wunderground v.1.15,2013-01-17 04:40:00,
2013-01-16 23:50:00,57.5,55.8,30.05,SW,232,0.0,0.0,94,0.00,,,0.00,Wunderground v.1.15,2013-01-17 04:50:00,
2013-01-16 23:55:00,57.4,55.7,30.05,SW,231,0.0,0.0,94,0.00,,,0.00,Wunderground v.1.15,2013-01-17 04:55:00,